Time;durP1;ratioP1;P1;durP2;ratioP2;P2;SDS_P1;SDS_P2;PMS_P1;PMS_P2;Temp;Humidity;BMP_temperature;BMP_pressure;BME280_temperature;BME280_humidity;BME280_pressure;Samples;Min_cycle;Max_cycle;Signal;HPM_P1;HPM_P2
2022/05/09 00:00:07;;;;;;;4.75;3.33;;;13.60;84.70;;;;;;5015868;28;20040;-75
2022/05/09 00:02:33;;;;;;;7.15;3.55;;;13.50;85.30;;;;;;5033324;28;20056;-80
2022/05/09 00:04:58;;;;;;;3.33;3.03;;;13.50;85.50;;;;;;5033537;28;20467;-80
2022/05/09 00:07:25;;;;;;;5.00;4.30;;;13.50;86.90;;;;;;5033508;28;20029;-81
2022/05/09 00:09:50;;;;;;;4.60;4.07;;;13.40;87.90;;;;;;5033584;28;20025;-74
2022/05/09 00:12:17;;;;;;;3.75;3.45;;;13.30;89.50;;;;;;5033599;28;20032;-75
2022/05/09 00:14:42;;;;;;;8.60;4.43;;;13.20;91.00;;;;;;5015249;28;20503;-74
2022/05/09 00:17:08;;;;;;;4.60;4.15;;;13.10;92.20;;;;;;5015601;28;20037;-81
2022/05/09 00:19:35;;;;;;;6.10;4.85;;;13.10;93.60;;;;;;5015333;28;20560;-74
2022/05/09 00:22:01;;;;;;;7.32;4.57;;;13.00;94.20;;;;;;5015299;28;20020;-81
2022/05/09 00:24:26;;;;;;;5.10;4.00;;;12.90;95.50;;;;;;5015630;28;20474;-74
2022/05/09 00:26:53;;;;;;;5.25;4.00;;;12.80;97.10;;;;;;5033157;28;20026;-75
2022/05/09 00:29:23;;;;;;;5.45;4.50;;;12.70;97.70;;;;;;5033159;28;20079;-81
2022/05/09 00:31:51;;;;;;;5.43;4.53;;;12.70;97.90;;;;;;5033118;28;20513;-81
2022/05/09 00:34:19;;;;;;;7.28;4.50;;;12.60;98.60;;;;;;5033127;28;20075;-80
2022/05/09 00:36:46;;;;;;;4.95;4.43;;;12.60;98.20;;;;;;5033041;28;20099;-73
2022/05/09 00:39:13;;;;;;;6.03;4.03;;;12.60;97.80;;;;;;5032962;28;20030;-74
2022/05/09 00:41:42;;;;;;;5.90;4.43;;;12.60;98.30;;;;;;5033174;28;20032;-80
2022/05/09 00:44:11;;;;;;;5.90;4.40;;;12.50;98.30;;;;;;5015376;28;20021;-81
2022/05/09 00:46:39;;;;;;;6.97;4.78;;;12.50;97.70;;;;;;5033284;28;20021;-80
2022/05/09 00:49:15;;;;;;;4.70;4.20;;;12.50;97.30;;;;;;5015338;28;20057;-74
2022/05/09 00:51:45;;;;;;;5.00;4.50;;;12.50;96.70;;;;;;5032954;28;20109;-74
2022/05/09 00:54:10;;;;;;;4.43;4.03;;;12.50;96.00;;;;;;5032784;28;20036;-74
2022/05/09 00:56:45;;;;;;;6.07;4.30;;;12.50;96.00;;;;;;5033071;28;20025;-76
2022/05/09 00:59:15;;;;;;;5.97;3.97;;;12.40;95.50;;;;;;5015268;28;20032;-74
2022/05/09 01:01:41;;;;;;;5.47;4.22;;;12.40;95.30;;;;;;5015293;28;20030;-80
2022/05/09 01:04:15;;;;;;;5.47;4.90;;;12.40;95.60;;;;;;5015199;28;20586;-74
2022/05/09 01:06:41;;;;;;;6.15;4.93;;;12.40;96.00;;;;;;5015261;28;20025;-81
2022/05/09 01:09:07;;;;;;;5.35;4.22;;;12.40;95.80;;;;;;5015085;28;20437;-74
2022/05/09 01:11:36;;;;;;;7.32;4.05;;;12.40;96.30;;;;;;4998884;28;20021;-81
2022/05/09 01:14:07;;;;;;;5.85;4.20;;;12.40;96.60;;;;;;5014811;28;20054;-80
2022/05/09 01:16:34;;;;;;;6.50;4.30;;;12.40;97.00;;;;;;5033009;28;20025;-74
2022/05/09 01:19:03;;;;;;;5.65;4.65;;;12.40;96.20;;;;;;5015053;28;20022;-80
2022/05/09 01:21:29;;;;;;;6.35;5.00;;;12.40;95.60;;;;;;5015166;28;20401;-80
2022/05/09 01:23:56;;;;;;;6.18;4.95;;;12.50;96.70;;;;;;5032849;28;20117;-80
2022/05/09 01:26:22;;;;;;;8.18;5.47;;;12.40;97.10;;;;;;5015180;28;20116;-80
2022/05/09 01:28:47;;;;;;;5.13;4.60;;;12.40;99.00;;;;;;5014793;28;20435;-80
2022/05/09 01:31:17;;;;;;;6.03;4.90;;;12.30;99.90;;;;;;5032994;28;20064;-74
2022/05/09 01:33:47;;;;;;;7.75;5.40;;;12.30;99.90;;;;;;5018549;28;20477;-80
2022/05/09 01:36:17;;;;;;;7.30;5.00;;;12.10;99.90;;;;;;5018602;28;20433;-73
2022/05/09 01:38:56;;;;;;;6.68;4.80;;;12.20;99.90;;;;;;5036203;28;20017;-80
2022/05/09 01:41:22;;;;;;;7.53;4.88;;;12.10;99.90;;;;;;5036113;28;20029;-79
2022/05/09 01:43:52;;;;;;;6.97;5.13;;;12.10;99.90;;;;;;5036104;28;20018;-79
2022/05/09 01:46:27;;;;;;;4.82;4.13;;;12.00;99.90;;;;;;5018438;28;20022;-80
2022/05/09 01:51:40;;;;;;;6.40;4.75;;;12.00;99.90;;;;;;5036376;28;20549;-73
2022/05/09 01:54:06;;;;;;;7.50;5.45;;;12.00;99.90;;;;;;5035847;28;20087;-74
2022/05/09 01:56:35;;;;;;;6.72;4.70;;;11.90;99.90;;;;;;5036133;28;20028;-80
2022/05/09 01:59:01;;;;;;;10.02;6.00;;;11.90;99.90;;;;;;5035739;28;20029;-74
2022/05/09 02:01:30;;;;;;;7.00;5.20;;;11.80;99.90;;;;;;5035769;28;20026;-80
2022/05/09 02:03:56;;;;;;;7.47;5.97;;;11.80;99.90;;;;;;5017965;28;20028;-74
2022/05/09 02:06:22;;;;;;;8.88;5.90;;;11.70;99.90;;;;;;5035892;28;20029;-80
2022/05/09 02:08:48;;;;;;;7.60;5.57;;;11.70;99.90;;;;;;5017812;28;20033;-73
2022/05/09 02:11:14;;;;;;;10.30;5.72;;;11.60;99.90;;;;;;5017905;28;20025;-79
2022/05/09 02:13:40;;;;;;;7.63;5.70;;;11.50;99.90;;;;;;5017685;28;20376;-79
2022/05/09 02:16:06;;;;;;;7.47;6.00;;;11.50;99.90;;;;;;5017941;28;20029;-73
2022/05/09 02:18:33;;;;;;;9.15;5.95;;;11.40;99.90;;;;;;5035529;28;20391;-73
2022/05/09 02:20:58;;;;;;;8.13;6.60;;;11.40;99.90;;;;;;5017858;28;20332;-74
2022/05/09 02:23:24;;;;;;;11.93;6.35;;;11.30;99.90;;;;;;5035494;28;20033;-74
2022/05/09 02:25:50;;;;;;;12.05;7.00;;;11.20;99.90;;;;;;5035616;28;20033;-75
2022/05/09 02:28:16;;;;;;;8.50;6.28;;;11.20;99.90;;;;;;5017455;28;20483;-74
2022/05/09 02:30:42;;;;;;;11.00;6.70;;;11.20;99.90;;;;;;5035326;28;20036;-76
2022/05/09 02:33:09;;;;;;;8.32;6.65;;;11.20;99.90;;;;;;5017555;28;20034;-79
2022/05/09 02:35:36;;;;;;;8.13;5.93;;;11.30;99.90;;;;;;5017549;28;20021;-80
2022/05/09 02:38:02;;;;;;;9.23;6.55;;;11.20;99.90;;;;;;5035306;28;20028;-74
2022/05/09 02:40:29;;;;;;;8.07;6.32;;;11.30;99.90;;;;;;5035160;28;20025;-75
2022/05/09 02:42:57;;;;;;;11.45;6.60;;;11.30;99.90;;;;;;5016550;28;20126;-74
2022/05/09 02:45:23;;;;;;;8.05;6.03;;;11.30;99.90;;;;;;5017310;28;20021;-79
2022/05/09 02:47:49;;;;;;;6.93;6.22;;;11.30;99.90;;;;;;5035006;28;20018;-74
2022/05/09 02:50:15;;;;;;;7.15;6.13;;;11.30;99.90;;;;;;5017076;28;20079;-74
2022/05/09 02:52:42;;;;;;;8.75;5.95;;;11.30;99.90;;;;;;5034840;28;20032;-80
2022/05/09 02:55:09;;;;;;;12.32;6.97;;;11.30;99.90;;;;;;5016931;28;20092;-74
2022/05/09 02:57:35;;;;;;;10.73;6.55;;;11.30;99.90;;;;;;5034909;28;20359;-79
2022/05/09 03:00:03;;;;;;;8.27;6.00;;;11.30;99.90;;;;;;5017013;28;20025;-75
2022/05/09 03:02:29;;;;;;;7.47;5.75;;;11.20;99.90;;;;;;5034810;28;20049;-74
2022/05/09 03:04:54;;;;;;;7.85;6.25;;;11.20;99.90;;;;;;5016975;28;20063;-74
2022/05/09 03:07:20;;;;;;;8.98;6.57;;;11.10;99.90;;;;;;5016967;28;20021;-80
2022/05/09 03:09:48;;;;;;;7.53;5.63;;;11.10;99.90;;;;;;5016817;28;20549;-80
2022/05/09 03:12:14;;;;;;;7.72;5.85;;;11.10;99.90;;;;;;5016731;28;20456;-80
2022/05/09 03:14:40;;;;;;;9.00;5.72;;;11.00;99.90;;;;;;5034207;28;20060;-79
2022/05/09 03:17:08;;;;;;;7.82;6.30;;;11.10;99.90;;;;;;5034375;28;20021;-75
2022/05/09 03:19:34;;;;;;;8.23;5.95;;;11.00;99.90;;;;;;5016748;28;20053;-80
2022/05/09 03:22:00;;;;;;;11.88;6.90;;;11.00;99.90;;;;;;5016618;28;20593;-81
2022/05/09 03:24:26;;;;;;;8.50;5.82;;;11.00;99.90;;;;;;5034164;28;20048;-73
2022/05/09 03:26:52;;;;;;;9.90;6.35;;;11.10;99.90;;;;;;5016581;28;20029;-74
2022/05/09 03:29:19;;;;;;;8.77;6.55;;;11.10;99.90;;;;;;5034252;28;20025;-74
2022/05/09 03:31:48;;;;;;;8.50;6.72;;;11.00;99.90;;;;;;5016392;28;20037;-80
2022/05/09 03:34:14;;;;;;;13.10;7.90;;;11.10;99.90;;;;;;5016224;28;20037;-80
2022/05/09 03:36:40;;;;;;;10.90;6.97;;;11.10;99.90;;;;;;5016247;28;20049;-80
2022/05/09 03:39:06;;;;;;;13.35;7.45;;;11.10;99.90;;;;;;5016333;28;20052;-74
2022/05/09 03:41:32;;;;;;;12.35;7.63;;;11.10;99.90;;;;;;5016323;28;20018;-79
2022/05/09 03:43:58;;;;;;;9.68;7.35;;;11.10;99.90;;;;;;5016402;28;20047;-79
2022/05/09 03:46:24;;;;;;;12.27;7.05;;;11.20;99.90;;;;;;5033661;28;20025;-79
2022/05/09 03:48:50;;;;;;;9.73;6.88;;;11.40;99.90;;;;;;5033873;28;20402;-74
2022/05/09 03:51:16;;;;;;;10.18;7.15;;;11.40;99.90;;;;;;5033676;28;20376;-79
2022/05/09 03:53:41;;;;;;;8.32;6.75;;;11.50;99.90;;;;;;5015900;28;20057;-74
2022/05/09 03:56:07;;;;;;;8.57;7.03;;;11.50;99.90;;;;;;5033721;28;20072;-77
2022/05/09 03:58:33;;;;;;;11.95;6.72;;;11.50;99.90;;;;;;5033667;28;20034;-74
2022/05/09 04:00:59;;;;;;;11.30;7.15;;;11.50;99.90;;;;;;5015823;28;20029;-79
2022/05/09 04:03:25;;;;;;;10.77;6.57;;;11.60;99.90;;;;;;5015832;28;20133;-74
2022/05/09 04:05:51;;;;;;;9.00;6.32;;;11.60;99.90;;;;;;5015668;28;20013;-75
2022/05/09 04:08:20;;;;;;;11.07;6.60;;;11.70;99.90;;;;;;5033524;28;20367;-75
2022/05/09 04:10:47;;;;;;;10.15;6.90;;;11.70;99.90;;;;;;5015725;28;20116;-80
2022/05/09 04:13:14;;;;;;;7.78;5.40;;;11.80;99.90;;;;;;5015329;28;20026;-74
2022/05/09 04:18:29;;;;;;;8.63;5.95;;;11.90;99.90;;;;;;5033759;28;20036;-74
2022/05/09 04:20:55;;;;;;;8.18;5.18;;;11.90;99.30;;;;;;5033253;28;20092;-79
2022/05/09 04:23:21;;;;;;;8.25;5.60;;;11.90;98.90;;;;;;5015598;28;20123;-74
2022/05/09 04:25:48;;;;;;;8.23;5.82;;;11.90;98.90;;;;;;5015538;28;20029;-78
2022/05/09 04:28:17;;;;;;;8.75;6.28;;;12.00;99.40;;;;;;5015535;28;20022;-73
2022/05/09 04:30:43;;;;;;;9.65;5.90;;;12.00;99.30;;;;;;5015413;28;20029;-80
2022/05/09 04:33:09;;;;;;;9.27;6.40;;;12.00;99.90;;;;;;5033107;28;20033;-74
2022/05/09 04:35:38;;;;;;;9.60;6.28;;;12.10;99.90;;;;;;5033065;28;20030;-74
2022/05/09 04:38:04;;;;;;;8.13;5.72;;;12.20;98.80;;;;;;5015376;28;20107;-74
2022/05/09 04:40:32;;;;;;;8.70;6.18;;;12.20;96.70;;;;;;5015275;28;20159;-80
2022/05/09 04:42:59;;;;;;;9.38;6.32;;;12.30;94.80;;;;;;5015136;28;20447;-81
2022/05/09 04:45:26;;;;;;;11.38;5.78;;;12.40;94.50;;;;;;5015399;28;20036;-74
2022/05/09 04:47:52;;;;;;;8.48;6.00;;;12.50;94.80;;;;;;5015309;28;20013;-81
2022/05/09 04:50:22;;;;;;;9.98;7.72;;;12.60;93.10;;;;;;5015285;28;20028;-74
2022/05/09 04:52:47;;;;;;;8.95;5.80;;;12.60;92.80;;;;;;5032950;28;20021;-80
2022/05/09 04:55:15;;;;;;;11.20;6.05;;;12.60;92.10;;;;;;5033078;28;20437;-80
2022/05/09 04:57:41;;;;;;;7.57;5.65;;;12.70;91.40;;;;;;5015165;28;20029;-74
2022/05/09 05:00:14;;;;;;;7.75;6.15;;;12.70;91.20;;;;;;5033107;28;20025;-76
2022/05/09 05:02:40;;;;;;;6.45;5.65;;;12.80;91.20;;;;;;5015208;28;20026;-81
2022/05/09 05:05:06;;;;;;;6.85;5.57;;;12.80;90.40;;;;;;5032920;28;20389;-74
2022/05/09 05:07:32;;;;;;;7.70;5.53;;;12.90;90.00;;;;;;5035595;28;20028;-75
2022/05/09 05:09:58;;;;;;;7.47;5.50;;;13.00;90.80;;;;;;5018301;28;20025;-74
2022/05/09 05:12:24;;;;;;;8.38;5.45;;;13.10;87.80;;;;;;5027513;28;20053;-82
2022/05/09 05:14:49;;;;;;;13.40;5.85;;;13.20;87.00;;;;;;5045823;28;20045;-83
2022/05/09 05:17:15;;;;;;;9.98;5.82;;;13.30;86.50;;;;;;5033779;28;20407;-76
2022/05/09 05:19:44;;;;;;;10.60;5.80;;;13.40;85.60;;;;;;5024976;28;20053;-83
2022/05/09 05:22:15;;;;;;;7.53;5.60;;;13.40;83.00;;;;;;5035359;28;20032;-83
2022/05/09 05:24:44;;;;;;;8.05;5.85;;;13.60;84.40;;;;;;5035071;28;20018;-82
2022/05/09 05:27:12;;;;;;;6.78;5.13;;;13.70;83.00;;;;;;5015583;28;20033;-82
2022/05/09 05:29:37;;;;;;;9.93;5.45;;;13.80;80.60;;;;;;5030726;28;20025;-75
2022/05/09 05:32:17;;;;;;;7.95;5.25;;;13.80;78.70;;;;;;5033636;28;20037;-83
2022/05/09 05:34:43;;;;;;;10.05;5.60;;;13.90;78.20;;;;;;5007171;28;20033;-75
2022/05/09 05:37:09;;;;;;;9.48;5.88;;;14.00;78.70;;;;;;5033370;28;20040;-75
2022/05/09 05:39:37;;;;;;;8.23;4.93;;;14.10;78.60;;;;;;5021987;28;20025;-76
2022/05/09 05:42:05;;;;;;;6.80;5.35;;;14.20;78.10;;;;;;5034634;28;20037;-82
2022/05/09 05:44:31;;;;;;;6.95;4.82;;;14.30;76.60;;;;;;5029993;28;20425;-83
2022/05/09 05:46:56;;;;;;;8.57;5.78;;;14.50;75.00;;;;;;5037989;28;20394;-76
2022/05/09 05:49:22;;;;;;;10.07;5.97;;;14.60;75.00;;;;;;5038321;28;20028;-81
2022/05/09 05:51:47;;;;;;;7.05;5.05;;;14.80;74.40;;;;;;5055872;28;20498;-80
2022/05/09 05:54:13;;;;;;;5.60;4.97;;;14.90;72.90;;;;;;5047511;28;20064;-82
2022/05/09 05:56:38;;;;;;;9.75;5.10;;;15.10;72.00;;;;;;5017039;28;20029;-76
2022/05/09 05:59:05;;;;;;;10.35;5.65;;;15.30;72.10;;;;;;5015833;28;20029;-82
2022/05/09 06:01:33;;;;;;;4.65;4.00;;;15.50;69.50;;;;;;5033572;28;20072;-82
2022/05/09 06:03:59;;;;;;;7.07;4.40;;;15.60;67.90;;;;;;5033552;28;20423;-76
2022/05/09 06:06:25;;;;;;;7.50;4.38;;;15.80;67.80;;;;;;5033460;28;20063;-82
2022/05/09 06:08:50;;;;;;;5.85;4.47;;;16.10;68.00;;;;;;5034054;28;20064;-75
2022/05/09 06:11:16;;;;;;;6.32;3.97;;;16.30;66.90;;;;;;5034250;28;20466;-76
2022/05/09 06:13:42;;;;;;;7.05;3.92;;;16.40;62.10;;;;;;5017369;28;20041;-76
2022/05/09 06:16:07;;;;;;;7.18;3.90;;;16.50;60.20;;;;;;5017578;28;20029;-76
2022/05/09 06:18:33;;;;;;;4.70;3.63;;;16.60;59.50;;;;;;5034019;28;20048;-81
2022/05/09 06:20:59;;;;;;;5.63;3.90;;;16.70;60.40;;;;;;5035492;28;20021;-77
2022/05/09 06:23:25;;;;;;;5.97;3.60;;;16.70;59.10;;;;;;5017373;28;20483;-76
2022/05/09 06:25:51;;;;;;;5.13;3.80;;;16.30;59.10;;;;;;5017498;28;20510;-81
2022/05/09 06:28:21;;;;;;;6.63;4.07;;;16.10;59.70;;;;;;5034967;28;20025;-82
2022/05/09 06:30:46;;;;;;;5.28;4.00;;;16.00;59.60;;;;;;5035083;28;20049;-82
2022/05/09 06:33:12;;;;;;;8.65;4.00;;;16.10;60.30;;;;;;5017205;28;20494;-82
2022/05/09 06:35:46;;;;;;;6.43;3.72;;;16.20;60.40;;;;;;5035176;28;20022;-82
2022/05/09 06:38:16;;;;;;;8.80;3.55;;;16.20;59.60;;;;;;5035054;28;20029;-82
2022/05/09 06:40:43;;;;;;;4.35;3.30;;;16.30;59.90;;;;;;5035081;28;20101;-82
2022/05/09 06:43:08;;;;;;;5.88;3.75;;;16.30;59.50;;;;;;5034910;28;20021;-82
2022/05/09 06:45:35;;;;;;;10.27;3.97;;;16.40;59.00;;;;;;5034949;28;20040;-82
2022/05/09 06:48:01;;;;;;;7.25;5.20;;;16.50;60.10;;;;;;5016984;28;20028;-76
2022/05/09 06:50:33;;;;;;;6.72;4.18;;;16.70;58.60;;;;;;5034909;28;20029;-77
2022/05/09 06:53:00;;;;;;;9.73;3.72;;;16.70;59.40;;;;;;5016894;28;20112;-76
2022/05/09 06:55:26;;;;;;;5.40;4.75;;;16.90;59.50;;;;;;5016882;28;20112;-76
2022/05/09 06:57:52;;;;;;;10.60;3.90;;;17.00;58.30;;;;;;5016781;28;20022;-76
2022/05/09 07:00:21;;;;;;;6.55;3.78;;;17.10;57.60;;;;;;5034464;28;20024;-77
2022/05/09 07:02:47;;;;;;;6.60;3.75;;;17.30;58.10;;;;;;5016868;28;20026;-76
2022/05/09 07:05:15;;;;;;;7.97;3.90;;;17.50;56.60;;;;;;5016838;28;20474;-82
2022/05/09 07:07:42;;;;;;;8.13;3.58;;;17.60;57.10;;;;;;5016540;28;20052;-76
2022/05/09 07:10:08;;;;;;;6.22;3.25;;;17.60;55.00;;;;;;5034836;28;20064;-82
2022/05/09 07:12:49;;;;;;;7.28;3.83;;;17.80;54.50;;;;;;5034354;28;20538;-77
2022/05/09 07:15:23;;;;;;;8.20;3.47;;;17.90;54.90;;;;;;5016442;28;20054;-81
2022/05/09 07:17:50;;;;;;;8.18;3.50;;;18.00;54.50;;;;;;5016619;28;20116;-76
2022/05/09 07:20:17;;;;;;;4.57;3.60;;;18.20;53.50;;;;;;5016449;28;20022;-76
2022/05/09 07:22:44;;;;;;;3.15;1.95;;;18.10;51.90;;;;;;5016497;28;20022;-76
2022/05/09 07:25:15;;;;;;;5.57;2.97;;;18.00;47.60;;;;;;5016423;28;20021;-82
2022/05/09 07:27:44;;;;;;;5.00;2.55;;;17.90;47.00;;;;;;5034117;28;20468;-79
2022/05/09 07:30:17;;;;;;;5.47;2.75;;;17.50;47.60;;;;;;5033731;28;20100;-77
2022/05/09 07:32:43;;;;;;;3.65;2.33;;;17.40;48.40;;;;;;5016416;28;20113;-82
2022/05/09 07:35:11;;;;;;;6.22;2.42;;;17.60;48.70;;;;;;5033839;28;20112;-82
2022/05/09 07:37:38;;;;;;;6.50;2.25;;;17.80;48.30;;;;;;5016276;28;20172;-82
2022/05/09 07:40:05;;;;;;;5.07;2.25;;;17.70;46.10;;;;;;5016107;28;20507;-82
2022/05/09 07:42:31;;;;;;;9.57;2.88;;;17.80;47.70;;;;;;5015976;28;20023;-78
2022/05/09 07:44:57;;;;;;;5.90;3.03;;;17.80;46.90;;;;;;5033814;28;20096;-79
2022/05/09 07:47:26;;;;;;;4.90;2.75;;;17.90;47.10;;;;;;5010705;28;20026;-83
2022/05/09 07:49:51;;;;;;;6.00;2.60;;;18.00;48.20;;;;;;5026058;28;20041;-82
2022/05/09 07:52:17;;;;;;;7.20;2.85;;;18.10;47.00;;;;;;5024987;28;20027;-82
2022/05/09 07:54:43;;;;;;;5.85;2.78;;;17.90;47.50;;;;;;5032235;28;20073;-76
2022/05/09 07:57:09;;;;;;;4.03;2.50;;;17.70;46.90;;;;;;5032412;28;20026;-78
2022/05/09 07:59:35;;;;;;;3.85;2.33;;;17.60;47.60;;;;;;5031098;28;20026;-76
2022/05/09 08:02:01;;;;;;;4.07;2.25;;;17.40;47.20;;;;;;5032434;28;20028;-77
2022/05/09 08:04:26;;;;;;;4.53;2.00;;;17.50;46.50;;;;;;5031532;28;20029;-77
2022/05/09 08:06:52;;;;;;;5.25;2.95;;;17.50;46.00;;;;;;5031150;28;20022;-77
2022/05/09 08:09:17;;;;;;;7.05;2.97;;;17.30;46.50;;;;;;5031004;28;20028;-76
2022/05/09 08:11:44;;;;;;;8.02;3.15;;;17.50;46.80;;;;;;5032458;28;20087;-83
2022/05/09 08:14:11;;;;;;;4.53;2.78;;;17.60;44.50;;;;;;5035712;28;20045;-83
2022/05/09 08:16:37;;;;;;;6.47;2.70;;;17.80;46.60;;;;;;5025592;28;20538;-84
2022/05/09 08:19:03;;;;;;;5.20;2.30;;;18.10;47.40;;;;;;5046302;28;20473;-76
2022/05/09 08:21:29;;;;;;;6.28;3.13;;;18.20;45.90;;;;;;5023957;28;20049;-81
2022/05/09 08:23:55;;;;;;;4.43;2.35;;;18.00;44.90;;;;;;5029085;28;20036;-83
2022/05/09 08:26:21;;;;;;;11.93;3.85;;;18.00;44.60;;;;;;5034060;28;20168;-76
2022/05/09 08:28:48;;;;;;;10.45;4.35;;;18.00;43.40;;;;;;5033936;28;20062;-82
2022/05/09 08:31:18;;;;;;;9.52;2.83;;;18.00;43.20;;;;;;5033990;28;20628;-82
2022/05/09 08:33:49;;;;;;;6.97;4.15;;;18.10;43.30;;;;;;5033418;28;20043;-83
2022/05/09 08:36:45;;;;;;;4.00;2.55;;;18.30;43.40;;;;;;5033822;28;20513;-82
2022/05/09 08:39:03;;;;;;;8.57;3.38;;;18.40;45.80;;;;;;5051324;28;20508;-76
2022/05/09 08:41:43;;;;;;;4.78;2.33;;;18.20;44.20;;;;;;5033428;28;20045;-76
2022/05/09 08:44:40;;;;;;;5.40;2.40;;;18.10;44.50;;;;;;5009190;28;20021;-83
2022/05/09 08:47:25;;;;;;;4.05;1.98;;;18.00;42.90;;;;;;5015260;28;20036;-76
2022/05/09 08:50:09;;;;;;;5.35;3.03;;;17.60;43.60;;;;;;5041877;28;20083;-77
2022/05/09 08:52:49;;;;;;;6.18;2.95;;;17.70;46.30;;;;;;5039233;28;20055;-76
2022/05/09 08:55:18;;;;;;;3.95;2.78;;;18.00;46.40;;;;;;5025933;28;20387;-82
2022/05/09 08:57:52;;;;;;;3.70;2.38;;;18.30;46.50;;;;;;5051860;28;20032;-84
2022/05/09 09:00:20;;;;;;;4.55;2.22;;;18.50;44.80;;;;;;5033532;28;20099;-83
2022/05/09 09:03:22;;;;;;;5.22;3.10;;;18.30;43.70;;;;;;5022656;28;20104;-84
2022/05/09 09:05:51;;;;;;;8.00;3.20;;;18.20;45.30;;;;;;5011104;28;20032;-76
2022/05/09 09:08:55;;;;;;;12.00;2.60;;;18.50;45.90;;;;;;5029194;28;20025;-76
2022/05/09 09:11:29;;;;;;;6.57;3.50;;;18.80;44.70;;;;;;5019993;28;20038;-76
2022/05/09 09:14:04;;;;;;;7.05;2.60;;;18.70;44.50;;;;;;5033200;28;20395;-77
2022/05/09 09:16:50;;;;;;;4.93;2.75;;;18.30;43.50;;;;;;5019952;28;20033;-76
2022/05/09 09:19:41;;;;;;;5.85;2.67;;;18.00;43.60;;;;;;5019670;28;20029;-83
2022/05/09 09:22:25;;;;;;;5.85;2.40;;;18.40;44.00;;;;;;5034601;28;20171;-76
2022/05/09 09:25:28;;;;;;;5.90;3.20;;;18.70;44.20;;;;;;5052305;28;20028;-83
2022/05/09 09:28:02;;;;;;;6.07;2.75;;;18.70;43.40;;;;;;5034626;28;20467;-84
2022/05/09 09:30:29;;;;;;;5.85;2.47;;;18.90;43.10;;;;;;5034417;28;20452;-84
2022/05/09 09:33:01;;;;;;;4.43;2.25;;;19.20;43.50;;;;;;5052321;28;20057;-84
2022/05/09 09:35:34;;;;;;;4.37;2.40;;;19.20;42.00;;;;;;5052318;28;20037;-83
2022/05/09 09:38:29;;;;;;;4.25;2.55;;;19.10;42.30;;;;;;5034506;28;20021;-76
2022/05/09 09:40:55;;;;;;;6.00;2.35;;;19.20;41.90;;;;;;5021168;28;20040;-77
2022/05/09 09:43:20;;;;;;;9.07;2.97;;;19.30;43.00;;;;;;5052267;28;20490;-83
2022/05/09 09:46:01;;;;;;;3.65;2.40;;;19.30;42.70;;;;;;5052043;28;20017;-83
2022/05/09 09:48:26;;;;;;;4.68;2.65;;;19.60;41.80;;;;;;5040208;28;20056;-83
2022/05/09 09:50:59;;;;;;;5.43;2.42;;;19.70;41.60;;;;;;5032172;28;20484;-77
2022/05/09 09:53:35;;;;;;;5.72;2.78;;;19.70;41.80;;;;;;5019332;28;20068;-77
2022/05/09 09:56:05;;;;;;;3.20;2.50;;;19.70;42.20;;;;;;5037633;28;20017;-83
2022/05/09 09:58:32;;;;;;;4.32;2.25;;;19.80;42.00;;;;;;5037903;28;20017;-76
2022/05/09 10:01:06;;;;;;;6.30;2.72;;;19.60;41.20;;;;;;5054167;28;20501;-83
2022/05/09 10:03:33;;;;;;;6.38;2.58;;;19.70;41.10;;;;;;5013443;28;20517;-76
2022/05/09 10:05:59;;;;;;;6.15;2.60;;;19.70;41.20;;;;;;5005465;28;20021;-83
2022/05/09 10:08:36;;;;;;;5.40;2.28;;;19.40;40.30;;;;;;5000140;28;20067;-81
2022/05/09 10:11:13;;;;;;;3.55;2.38;;;19.30;39.60;;;;;;5015445;28;20464;-76
2022/05/09 10:13:54;;;;;;;6.15;2.85;;;19.40;39.60;;;;;;5001226;28;20071;-83
2022/05/09 10:16:48;;;;;;;3.65;2.20;;;19.30;41.00;;;;;;5035445;28;20561;-76
2022/05/09 10:19:29;;;;;;;3.13;2.20;;;19.40;41.40;;;;;;5035422;28;20018;-84
2022/05/09 10:24:57;;;;;;;6.35;2.35;;;20.00;40.60;;;;;;5035470;28;20039;-84
2022/05/09 10:27:22;;;;;;;4.68;2.78;;;20.10;39.80;;;;;;5017149;28;20482;-76
2022/05/09 10:29:57;;;;;;;2.60;2.17;;;20.20;40.10;;;;;;5017270;28;20036;-77
2022/05/09 10:32:42;;;;;;;7.60;2.95;;;20.10;40.70;;;;;;5034940;28;20100;-76
2022/05/09 10:35:22;;;;;;;4.97;2.75;;;20.20;40.60;;;;;;5035022;28;20116;-83
2022/05/09 10:38:01;;;;;;;5.35;2.75;;;19.90;40.30;;;;;;5034862;28;20052;-84
2022/05/09 10:40:32;;;;;;;4.57;2.20;;;20.10;39.40;;;;;;5033837;28;20033;-84
2022/05/09 10:43:24;;;;;;;4.88;2.28;;;20.20;40.30;;;;;;5034930;28;20032;-83
2022/05/09 10:45:50;;;;;;;7.10;2.70;;;20.40;38.80;;;;;;5017191;28;20056;-83
2022/05/09 10:48:53;;;;;;;5.43;2.30;;;20.40;38.90;;;;;;5015801;28;20754;-83
2022/05/09 10:51:38;;;;;;;8.93;2.53;;;20.40;38.60;;;;;;5013937;28;20399;-76
2022/05/09 10:54:07;;;;;;;6.75;2.75;;;20.30;38.30;;;;;;5036401;28;20060;-76
2022/05/09 10:56:58;;;;;;;5.25;2.38;;;20.30;37.30;;;;;;5036710;28;20028;-76
2022/05/09 10:59:30;;;;;;;2.58;2.03;;;20.50;35.80;;;;;;5036798;28;20032;-83
2022/05/09 11:02:24;;;;;;;2.92;2.55;;;20.40;36.40;;;;;;5054645;28;20425;-83
2022/05/09 11:04:50;;;;;;;3.85;2.83;;;20.20;37.50;;;;;;5054084;28;20382;-83
2022/05/09 11:07:26;;;;;;;3.60;2.50;;;20.30;38.40;;;;;;5036536;28;20021;-83
2022/05/09 11:10:24;;;;;;;6.63;2.58;;;20.40;39.30;;;;;;5054420;28;20108;-76
2022/05/09 11:13:22;;;;;;;6.80;2.80;;;20.40;39.60;;;;;;5054402;28;20140;-76
2022/05/09 11:15:56;;;;;;;4.32;2.17;;;20.30;39.00;;;;;;5054400;28;20073;-76
2022/05/09 11:18:39;;;;;;;8.23;2.47;;;20.40;39.80;;;;;;5054128;28;20028;-76
2022/05/09 11:21:23;;;;;;;4.20;2.60;;;20.60;39.60;;;;;;5054097;28;20025;-83
2022/05/09 11:24:18;;;;;;;5.10;2.70;;;20.50;40.10;;;;;;5036076;28;20478;-83
2022/05/09 11:27:02;;;;;;;8.82;3.05;;;20.30;39.50;;;;;;5036600;28;20021;-84
2022/05/09 11:29:50;;;;;;;7.90;2.17;;;20.30;40.20;;;;;;5035998;28;20031;-76
2022/05/09 11:32:38;;;;;;;4.85;2.72;;;20.30;40.50;;;;;;5035880;28;20159;-77
2022/05/09 11:35:07;;;;;;;3.60;2.40;;;19.80;38.30;;;;;;5036067;28;20036;-76
2022/05/09 11:38:05;;;;;;;3.85;2.50;;;20.00;37.30;;;;;;5053826;28;20054;-83
2022/05/09 11:40:48;;;;;;;3.05;2.17;;;20.40;37.40;;;;;;5053842;28;20541;-76
2022/05/09 11:43:55;;;;;;;5.88;2.75;;;20.60;37.00;;;;;;5053621;28;20553;-83
2022/05/09 11:46:35;;;;;;;10.38;3.08;;;21.00;36.80;;;;;;5035808;28;20104;-84
2022/05/09 11:49:03;;;;;;;6.07;3.35;;;20.80;37.70;;;;;;5036255;28;20024;-83
2022/05/09 11:51:28;;;;;;;4.15;2.80;;;20.50;37.70;;;;;;5015876;28;20505;-83
2022/05/09 11:54:01;;;;;;;6.13;3.33;;;20.30;38.60;;;;;;5023177;28;20052;-83
2022/05/09 11:56:29;;;;;;;;;;;20.30;39.50;;;;;;5054253;28;20513;-76
2022/05/09 11:58:55;;;;;;;6.38;3.33;;;19.50;40.90;;;;;;5035766;28;20340;-76
2022/05/09 12:02:09;;;;;;;3.28;2.92;;;19.20;41.60;;;;;;5053298;28;20478;-82
2022/05/09 12:04:41;;;;;;;4.30;2.70;;;19.00;41.80;;;;;;4956642;28;20031;-76
2022/05/09 12:07:27;;;;;;;4.40;3.40;;;19.20;42.20;;;;;;4956385;28;20027;-76
2022/05/09 12:10:04;;;;;;;6.15;3.00;;;19.50;43.10;;;;;;5027270;28;20037;-76
2022/05/09 12:12:41;;;;;;;4.25;2.50;;;19.50;41.90;;;;;;5035300;28;20479;-83
2022/05/09 12:15:16;;;;;;;5.13;3.33;;;19.50;41.20;;;;;;5031538;28;20049;-82
2022/05/09 12:17:44;;;;;;;4.68;2.58;;;19.80;41.00;;;;;;5032995;28;20116;-76
2022/05/09 12:20:23;;;;;;;6.25;3.03;;;20.20;40.40;;;;;;5033430;28;20028;-76
2022/05/09 12:22:51;;;;;;;5.53;3.03;;;20.40;39.60;;;;;;5033313;28;20028;-76
2022/05/09 12:25:36;;;;;;;4.88;2.67;;;20.20;39.00;;;;;;5031722;28;20382;-76
2022/05/09 12:28:05;;;;;;;4.47;2.83;;;20.20;39.50;;;;;;5031960;28;20060;-76
2022/05/09 12:30:49;;;;;;;8.00;3.35;;;20.30;39.60;;;;;;5033156;28;20481;-83
2022/05/09 12:33:36;;;;;;;6.65;3.08;;;20.20;39.80;;;;;;5033003;28;20113;-76
2022/05/09 12:36:14;;;;;;;3.38;2.65;;;20.30;41.50;;;;;;5031966;28;20486;-83
2022/05/09 12:38:49;;;;;;;4.00;2.40;;;20.70;41.90;;;;;;5033607;28;20028;-83
2022/05/09 12:41:24;;;;;;;3.92;2.60;;;20.70;39.50;;;;;;5029340;28;20104;-83
2022/05/09 12:44:16;;;;;;;5.43;2.47;;;20.70;39.50;;;;;;5029935;28;20159;-81
2022/05/09 12:46:46;;;;;;;6.15;2.40;;;20.50;39.50;;;;;;5022310;28;20065;-83
2022/05/09 12:49:14;;;;;;;3.92;2.22;;;19.90;38.90;;;;;;5031421;28;20028;-82
2022/05/09 12:51:44;;;;;;;4.18;3.10;;;19.70;38.60;;;;;;5031251;28;20116;-76
2022/05/09 12:54:12;;;;;;;3.83;2.22;;;19.30;38.40;;;;;;5031128;28;20039;-76
2022/05/09 12:56:47;;;;;;;2.78;2.10;;;19.30;38.90;;;;;;5006783;28;20041;-76
2022/05/09 12:59:14;;;;;;;4.80;2.00;;;19.60;38.00;;;;;;5030457;28;20017;-76
2022/05/09 13:01:49;;;;;;;2.25;1.88;;;19.70;36.50;;;;;;5031563;28;20502;-76
2022/05/09 13:04:20;;;;;;;4.55;2.25;;;19.80;35.70;;;;;;5005092;28;20021;-76
2022/05/09 13:06:49;;;;;;;3.13;1.90;;;20.30;34.80;;;;;;5019448;28;20030;-76
2022/05/09 13:09:34;;;;;;;6.75;2.38;;;20.70;35.10;;;;;;5030488;28;20104;-82
2022/05/09 13:12:22;;;;;;;12.20;3.08;;;20.40;37.90;;;;;;5030087;28;20403;-76